Time;durP1;ratioP1;P1;durP2;ratioP2;P2;SDS_P1;SDS_P2;PMS_P1;PMS_P2;Temp;Humidity;BMP_temperature;BMP_pressure;BME280_temperature;BME280_humidity;BME280_pressure;Samples;Min_cycle;Max_cycle;Signal;HPM_P1;HPM_P2
2022/01/09 00:01:10;;;;;;;22.42;12.55;;;;;;;0.45;83.38;99928.03;5056604;28;20063;-54
2022/01/09 00:03:39;;;;;;;24.98;13.48;;;;;;;0.44;83.30;99922.06;5053074;28;20409;-52
2022/01/09 00:06:06;;;;;;;24.50;13.85;;;;;;;0.47;83.46;99927.22;5057474;28;20079;-55
2022/01/09 00:08:35;;;;;;;28.02;14.13;;;;;;;0.48;83.69;99918.72;5056078;28;20647;-52
2022/01/09 00:11:02;;;;;;;25.63;13.65;;;;;;;0.46;83.66;99911.88;5052184;28;20477;-54
2022/01/09 00:13:29;;;;;;;24.80;14.15;;;;;;;0.47;83.68;99911.06;5050186;28;20044;-51
2022/01/09 00:15:56;;;;;;;27.02;14.23;;;;;;;0.48;83.68;99908.53;5062433;28;20599;-53
2022/01/09 00:18:23;;;;;;;22.58;13.38;;;;;;;0.46;83.57;99915.28;5055441;28;20053;-51
2022/01/09 00:20:50;;;;;;;25.38;13.93;;;;;;;0.48;83.69;99905.13;5061208;28;20481;-54
2022/01/09 00:23:17;;;;;;;29.13;15.73;;;;;;;0.51;84.03;99907.72;5066777;28;20473;-52
2022/01/09 00:25:46;;;;;;;28.83;15.35;;;;;;;0.54;84.32;99908.69;5059247;28;20836;-52
2022/01/09 00:28:13;;;;;;;29.95;16.33;;;;;;;0.53;84.36;99901.88;5057416;28;20040;-52
2022/01/09 00:30:40;;;;;;;28.65;14.77;;;;;;;0.54;84.38;99903.59;5062492;28;20568;-53
2022/01/09 00:33:07;;;;;;;29.15;15.57;;;;;;;0.49;84.60;99900.06;5058924;28;20056;-51
2022/01/09 00:35:35;;;;;;;27.75;15.65;;;;;;;0.48;84.82;99903.44;5058950;28;20055;-54
2022/01/09 00:38:02;;;;;;;26.38;15.50;;;;;;;0.48;85.21;99908.53;5060691;28;21146;-51
2022/01/09 00:40:30;;;;;;;27.63;15.93;;;;;;;0.47;84.96;99906.81;5060103;28;20117;-52
2022/01/09 00:42:58;;;;;;;28.23;15.90;;;;;;;0.44;84.87;99904.22;5058214;28;20044;-55
2022/01/09 00:45:25;;;;;;;25.00;12.75;;;;;;;0.42;84.23;99902.47;5061486;28;20056;-51
2022/01/09 00:47:52;;;;;;;24.45;13.20;;;;;;;0.36;84.33;99903.22;5060183;28;20867;-53
2022/01/09 00:50:19;;;;;;;18.83;10.95;;;;;;;0.26;81.84;99891.97;5061877;28;20565;-51
2022/01/09 00:52:47;;;;;;;22.60;11.82;;;;;;;0.24;82.26;99890.22;5061540;28;20048;-53
2022/01/09 00:55:14;;;;;;;20.92;10.48;;;;;;;0.23;81.95;99891.06;5059699;28;20056;-52
2022/01/09 00:57:41;;;;;;;19.33;11.02;;;;;;;0.24;82.19;99885.13;5058796;28;20070;-51
2022/01/09 01:00:11;;;;;;;18.83;10.25;;;;;;;0.27;82.13;99887.75;5056548;28;20087;-54
2022/01/09 01:02:38;;;;;;;18.30;10.35;;;;;;;0.23;81.00;99878.31;5058660;28;20041;-53
2022/01/09 01:05:06;;;;;;;16.17;9.32;;;;;;;0.21;81.40;99878.28;5056197;28;20145;-53
2022/01/09 01:07:34;;;;;;;18.95;10.38;;;;;;;0.23;81.85;99891.06;5060467;28;20508;-54
2022/01/09 01:10:01;;;;;;;21.67;11.65;;;;;;;0.24;81.78;99888.53;5058790;28;20060;-51
2022/01/09 01:12:30;;;;;;;20.77;11.07;;;;;;;0.24;82.09;99882.59;5058368;28;20396;-53
2022/01/09 01:14:58;;;;;;;20.73;10.25;;;;;;;0.26;82.15;99878.38;5059524;28;20133;-53
2022/01/09 01:17:27;;;;;;;19.38;10.65;;;;;;;0.23;81.55;99880.88;5066875;28;20060;-54
2022/01/09 01:19:54;;;;;;;18.70;10.52;;;;;;;0.21;81.42;99869.78;5061386;28;20052;-54
2022/01/09 01:22:22;;;;;;;20.90;10.90;;;;;;;0.22;81.53;99863.84;5054795;28;20052;-54
2022/01/09 01:24:50;;;;;;;18.15;9.63;;;;;;;0.21;81.31;99864.69;5055773;28;20120;-55
2022/01/09 01:27:18;;;;;;;17.77;8.63;;;;;;;0.20;80.72;99861.28;5059129;28;20183;-55
2022/01/09 01:29:45;;;;;;;16.80;9.57;;;;;;;0.23;80.83;99856.22;5054615;28;20139;-56
2022/01/09 01:32:12;;;;;;;19.48;10.20;;;;;;;0.24;80.69;99862.19;5056078;28;20048;-55
2022/01/09 01:34:40;;;;;;;16.20;9.30;;;;;;;0.26;80.86;99860.53;5056096;28;20052;-55
2022/01/09 01:37:08;;;;;;;14.43;9.23;;;;;;;0.25;80.28;99861.34;5057378;28;20044;-54
2022/01/09 01:39:35;;;;;;;17.33;9.70;;;;;;;0.26;80.52;99863.06;5055466;28;20060;-55
2022/01/09 01:42:02;;;;;;;16.77;9.30;;;;;;;0.25;80.40;99864.78;5063512;28;20056;-54
2022/01/09 01:44:40;;;;;;;16.10;9.20;;;;;;;0.26;80.51;99861.38;5066690;28;20048;-55
2022/01/09 01:47:07;;;;;;;16.63;9.75;;;;;;;0.25;80.70;99854.56;5056568;28;20048;-55
2022/01/09 01:49:34;;;;;;;16.30;9.20;;;;;;;0.26;80.65;99855.44;5055950;28;20056;-54
2022/01/09 01:52:03;;;;;;;17.30;9.63;;;;;;;0.25;80.56;99853.72;5063547;28;20041;-52
2022/01/09 01:54:32;;;;;;;17.20;9.65;;;;;;;0.25;80.56;99852.03;5055927;28;20040;-54
2022/01/09 01:56:59;;;;;;;17.17;10.05;;;;;;;0.21;80.67;99851.94;5055997;28;20143;-53
2022/01/09 01:59:27;;;;;;;17.13;9.77;;;;;;;0.20;80.67;99845.13;5056585;28;20049;-54
2022/01/09 02:01:54;;;;;;;15.40;9.07;;;;;;;0.18;80.33;99847.66;5055160;28;20056;-55
2022/01/09 02:04:21;;;;;;;16.38;9.65;;;;;;;0.15;80.31;99847.59;5057692;28;20048;-53
2022/01/09 02:06:48;;;;;;;16.42;9.57;;;;;;;0.09;80.51;99849.16;5060223;28;20486;-51
2022/01/09 02:09:17;;;;;;;16.02;8.95;;;;;;;0.02;80.54;99844.78;5054086;28;20079;-52
2022/01/09 02:11:45;;;;;;;24.75;13.00;;;;;;;-0.04;80.73;99848.88;5055780;28;20060;-54
2022/01/09 02:14:12;;;;;;;20.02;11.77;;;;;;;-0.11;81.15;99849.59;5059646;28;20157;-55
2022/01/09 02:16:41;;;;;;;25.17;13.95;;;;;;;-0.15;81.02;99847.81;5059582;28;20048;-52
2022/01/09 02:19:13;;;;;;;34.70;17.98;;;;;;;-0.19;81.75;99846.03;5057600;28;20044;-53
2022/01/09 02:21:44;;;;;;;46.25;23.65;;;;;;;-0.23;82.05;99854.44;5060131;28;20037;-52
2022/01/09 02:24:11;;;;;;;39.10;20.25;;;;;;;-0.28;82.34;99861.13;5064849;28;20057;-54
2022/01/09 02:26:39;;;;;;;36.42;19.58;;;;;;;-0.30;82.15;99852.59;5060077;28;20048;-52
2022/01/09 02:29:06;;;;;;;30.88;15.63;;;;;;;-0.33;82.43;99857.63;5055675;28;20055;-55
2022/01/09 02:31:34;;;;;;;27.80;14.98;;;;;;;-0.40;83.15;99860.88;5056334;28;20308;-55
2022/01/09 02:34:01;;;;;;;27.77;14.18;;;;;;;-0.40;83.41;99855.78;5057800;28;20053;-57
2022/01/09 02:36:28;;;;;;;28.25;14.93;;;;;;;-0.42;83.48;99857.44;5054377;28;20102;-55
2022/01/09 02:38:57;;;;;;;33.05;16.85;;;;;;;-0.45;83.69;99849.72;5057956;28;20721;-56
2022/01/09 02:41:24;;;;;;;39.72;20.23;;;;;;;-0.55;84.13;99852.88;5054838;28;20057;-56
2022/01/09 02:43:51;;;;;;;40.63;19.15;;;;;;;-0.59;84.67;99853.63;5063179;28;20170;-55
2022/01/09 02:46:33;;;;;;;46.90;20.88;;;;;;;-0.68;85.08;99844.97;5057464;28;20040;-54
2022/01/09 02:49:04;;;;;;;42.47;21.13;;;;;;;-0.70;85.50;99846.63;5059380;28;20040;-54
2022/01/09 02:51:31;;;;;;;46.88;23.58;;;;;;;-0.77;85.84;99843.91;5058558;28;20405;-55
2022/01/09 02:55:04;;;;;;;52.45;25.05;;;;;;;-0.81;86.55;99845.53;5061084;28;20052;-55
2022/01/09 02:56:47;;;;;;;57.30;29.50;;;;;;;-0.87;86.96;99842.84;5056475;28;20056;-54
2022/01/09 02:59:14;;;;;;;49.05;25.30;;;;;;;-0.95;87.76;99846.91;5063077;28;20056;-51
2022/01/09 03:01:41;;;;;;;60.70;28.73;;;;;;;-0.99;88.38;99845.09;5057136;28;20056;-52
2022/01/09 03:04:08;;;;;;;74.82;33.88;;;;;;;-1.03;88.77;99840.75;5055777;28;20079;-51
2022/01/09 03:06:35;;;;;;;58.75;29.20;;;;;;;-1.02;88.80;99837.41;5053783;28;20489;-56
2022/01/09 03:09:06;;;;;;;60.00;27.83;;;;;;;-1.04;88.98;99836.47;5053814;28;20053;-55
2022/01/09 03:11:33;;;;;;;65.55;29.73;;;;;;;-1.08;89.13;99832.13;5053789;28;20143;-54
2022/01/09 03:14:00;;;;;;;50.10;26.58;;;;;;;-1.14;89.30;99825.22;5056516;28;20052;-51
2022/01/09 03:16:28;;;;;;;68.35;30.95;;;;;;;-1.15;89.61;99825.19;5054873;28;20485;-55
2022/01/09 03:18:55;;;;;;;57.10;27.75;;;;;;;-1.18;89.89;99828.50;5055262;28;20044;-54
2022/01/09 03:21:22;;;;;;;55.83;27.65;;;;;;;-1.24;90.57;99825.81;5060568;28;20052;-52
2022/01/09 03:23:49;;;;;;;61.78;30.23;;;;;;;-1.23;90.60;99821.59;5056159;28;20056;-52
2022/01/09 03:26:18;;;;;;;54.47;26.75;;;;;;;-1.24;90.81;99828.38;5055657;28;20067;-55
2022/01/09 03:28:45;;;;;;;64.18;28.85;;;;;;;-1.27;90.72;99826.63;5056327;28;20105;-52
2022/01/09 03:31:12;;;;;;;64.43;29.52;;;;;;;-1.24;91.20;99828.38;5055595;28;20666;-52
2022/01/09 03:33:39;;;;;;;43.90;21.30;;;;;;;-1.21;91.22;99822.50;5055979;28;20047;-52
2022/01/09 03:36:06;;;;;;;48.42;23.92;;;;;;;-1.20;91.26;99835.25;5056780;28;20098;-51
2022/01/09 03:38:33;;;;;;;39.65;20.30;;;;;;;-1.22;91.41;99828.41;5053738;28;20052;-51
2022/01/09 03:41:00;;;;;;;41.42;19.55;;;;;;;-1.25;91.47;99818.16;5061232;28;20044;-55
2022/01/09 03:43:29;;;;;;;45.45;21.83;;;;;;;-1.24;91.29;99827.50;5058206;28;20057;-53
2022/01/09 03:45:56;;;;;;;47.97;21.38;;;;;;;-1.24;91.34;99819.88;5054928;28;20053;-52
2022/01/09 03:48:23;;;;;;;48.70;22.15;;;;;;;-1.20;91.17;99816.59;5063276;28;20056;-53
2022/01/09 03:50:52;;;;;;;41.25;20.95;;;;;;;-1.20;91.16;99811.50;5055066;28;20052;-52
2022/01/09 03:53:19;;;;;;;37.88;19.20;;;;;;;-1.21;91.18;99814.88;5057187;28;20044;-54
2022/01/09 03:55:46;;;;;;;44.83;22.85;;;;;;;-1.23;91.00;99806.34;5058295;28;21396;-53
2022/01/09 03:58:13;;;;;;;41.35;19.67;;;;;;;-1.29;91.00;99812.16;5058273;28;20052;-54
2022/01/09 04:00:42;;;;;;;36.10;19.45;;;;;;;-1.32;90.64;99823.09;5064069;28;20070;-51
2022/01/09 04:03:09;;;;;;;43.85;20.95;;;;;;;-1.33;90.98;99815.44;5065090;28;20477;-53
2022/01/09 04:05:36;;;;;;;42.80;21.20;;;;;;;-1.33;91.04;99816.28;5058362;28;20071;-51
2022/01/09 04:08:04;;;;;;;54.28;26.10;;;;;;;-1.31;90.93;99813.78;5061115;28;20052;-54
2022/01/09 04:10:33;;;;;;;47.03;22.85;;;;;;;-1.29;91.00;99813.00;5059547;28;20063;-54
2022/01/09 04:13:00;;;;;;;47.22;22.73;;;;;;;-1.31;90.94;99796.84;5061199;28;20051;-55
2022/01/09 04:15:29;;;;;;;45.55;21.65;;;;;;;-1.29;90.83;99807.91;5064659;28;20068;-51
2022/01/09 04:17:58;;;;;;;52.33;22.63;;;;;;;-1.32;90.99;99802.75;5062557;28;20450;-51
2022/01/09 04:20:28;;;;;;;58.58;27.73;;;;;;;-1.33;91.28;99801.03;5058207;28;20076;-54
2022/01/09 04:22:55;;;;;;;59.00;25.80;;;;;;;-1.33;91.28;99798.50;5058994;28;20059;-52
2022/01/09 04:25:22;;;;;;;68.38;32.10;;;;;;;-1.39;91.43;99800.91;5061894;28;20052;-53
2022/01/09 04:27:50;;;;;;;64.60;28.52;;;;;;;-1.40;91.45;99790.69;5058088;28;20750;-52
2022/01/09 04:30:18;;;;;;;60.20;28.20;;;;;;;-1.39;91.74;99784.78;5059349;28;20063;-54
2022/01/09 04:32:46;;;;;;;52.58;27.38;;;;;;;-1.39;91.80;99795.81;5058134;28;20051;-52
2022/01/09 04:35:15;;;;;;;57.47;27.35;;;;;;;-1.36;91.56;99783.16;5056924;28;21030;-52
2022/01/09 04:37:43;;;;;;;60.05;27.17;;;;;;;-1.36;91.67;99788.25;5060987;28;20543;-51
2022/01/09 04:40:14;;;;;;;58.60;27.38;;;;;;;-1.33;91.89;99790.00;5061536;28;20052;-51
2022/01/09 04:42:44;;;;;;;69.32;30.52;;;;;;;-1.29;91.55;99781.63;5062183;28;20319;-54
2022/01/09 04:45:13;;;;;;;65.22;28.10;;;;;;;-1.28;91.72;99779.13;5060827;28;20055;-50
2022/01/09 04:47:44;;;;;;;72.75;31.50;;;;;;;-1.27;91.82;99775.75;5062147;28;20045;-51
2022/01/09 04:50:16;;;;;;;77.13;32.65;;;;;;;-1.24;91.86;99769.88;5060181;28;20611;-53
2022/01/09 04:52:45;;;;;;;78.20;33.72;;;;;;;-1.22;91.60;99778.41;5057781;28;20604;-51
2022/01/09 04:55:12;;;;;;;82.82;35.28;;;;;;;-1.20;91.82;99766.59;5057211;28;20048;-54
2022/01/09 04:57:39;;;;;;;74.00;32.47;;;;;;;-1.16;91.70;99772.59;5056671;28;20044;-51
2022/01/09 05:00:08;;;;;;;78.13;32.35;;;;;;;-1.19;91.95;99772.53;5059340;28;20064;-52
2022/01/09 05:02:36;;;;;;;72.28;31.95;;;;;;;-1.18;91.87;99766.63;5062838;28;20059;-53
2022/01/09 05:05:04;;;;;;;68.63;29.92;;;;;;;-1.18;91.70;99764.09;5058095;28;20052;-53
2022/01/09 05:07:32;;;;;;;66.78;28.80;;;;;;;-1.24;92.18;99769.88;5055569;28;20067;-52
2022/01/09 05:10:00;;;;;;;57.83;26.60;;;;;;;-1.25;92.31;99777.47;5056914;28;20059;-51
2022/01/09 05:12:27;;;;;;;58.95;27.15;;;;;;;-1.25;92.48;99785.09;5061349;28;20405;-53
2022/01/09 05:14:54;;;;;;;55.63;24.25;;;;;;;-1.28;92.30;99774.03;5058290;28;20049;-52
2022/01/09 05:17:22;;;;;;;54.08;24.30;;;;;;;-1.25;92.34;99787.66;5056862;28;20587;-54
2022/01/09 05:19:51;;;;;;;51.80;23.80;;;;;;;-1.24;92.44;99784.28;5059184;28;20114;-54
2022/01/09 05:22:18;;;;;;;54.33;24.27;;;;;;;-1.23;92.31;99775.81;5055991;28;20052;-52
2022/01/09 05:24:45;;;;;;;55.15;24.67;;;;;;;-1.21;92.66;99784.34;5057545;28;20048;-52
2022/01/09 05:27:14;;;;;;;54.67;24.67;;;;;;;-1.17;92.62;99786.13;5059558;28;20402;-55
2022/01/09 05:29:41;;;;;;;53.78;25.50;;;;;;;-1.19;92.22;99786.09;5064829;28;20413;-52
2022/01/09 05:32:09;;;;;;;58.70;24.98;;;;;;;-1.15;91.87;99776.88;5056362;28;20421;-54
2022/01/09 05:34:37;;;;;;;53.70;25.85;;;;;;;-1.15;92.12;99784.50;5057679;28;20068;-52
2022/01/09 05:37:04;;;;;;;58.20;24.95;;;;;;;-1.14;91.85;99788.75;5059043;28;20063;-51
2022/01/09 05:39:32;;;;;;;54.05;25.42;;;;;;;-1.09;91.71;99789.72;5061123;28;20820;-51
2022/01/09 05:41:59;;;;;;;57.10;25.83;;;;;;;-1.08;91.55;99781.25;5056056;28;20785;-55
2022/01/09 05:44:28;;;;;;;47.88;22.73;;;;;;;-1.07;91.59;99788.06;5056752;28;20485;-52
2022/01/09 05:46:55;;;;;;;47.75;21.48;;;;;;;-1.06;91.35;99784.69;5057082;28;20497;-54
2022/01/09 05:49:22;;;;;;;47.88;20.77;;;;;;;-1.07;90.95;99798.25;5055362;28;20052;-53
2022/01/09 05:51:49;;;;;;;47.25;22.33;;;;;;;-1.14;90.92;99791.31;5055934;28;20425;-51
2022/01/09 05:54:16;;;;;;;52.70;22.27;;;;;;;-1.12;90.70;99794.75;5054345;28;20052;-53
2022/01/09 05:56:44;;;;;;;48.28;20.75;;;;;;;-1.13;90.63;99793.03;5057562;28;20482;-53
2022/01/09 05:59:11;;;;;;;47.17;20.23;;;;;;;-1.18;90.59;99789.50;5057917;28;20048;-53
2022/01/09 06:01:39;;;;;;;46.47;21.17;;;;;;;-1.17;90.61;99796.31;5055727;28;20109;-53
2022/01/09 06:04:07;;;;;;;43.95;20.50;;;;;;;-1.19;90.37;99790.34;5054887;28;20048;-51
2022/01/09 06:06:34;;;;;;;50.75;22.75;;;;;;;-1.20;90.21;99781.84;5061516;28;20045;-54
2022/01/09 06:09:01;;;;;;;50.58;23.08;;;;;;;-1.21;90.49;99785.22;5063066;28;20061;-52
2022/01/09 06:11:28;;;;;;;50.88;23.05;;;;;;;-1.22;90.60;99802.97;5058356;28;20051;-55
2022/01/09 06:13:55;;;;;;;52.20;22.80;;;;;;;-1.21;90.60;99787.75;5058063;28;20044;-55
2022/01/09 06:16:24;;;;;;;55.13;22.38;;;;;;;-1.22;90.87;99808.06;5058080;28;20053;-54
2022/01/09 06:18:52;;;;;;;55.15;21.67;;;;;;;-1.30;90.53;99796.03;5058681;28;21610;-55
2022/01/09 06:21:19;;;;;;;55.22;22.85;;;;;;;-1.29;90.64;99802.84;5061887;28;20048;-54
2022/01/09 06:23:46;;;;;;;53.40;23.10;;;;;;;-1.28;90.89;99804.56;5055356;28;20049;-54
2022/01/09 06:26:14;;;;;;;58.17;25.45;;;;;;;-1.23;90.98;99808.88;5056786;28;20040;-55
2022/01/09 06:28:41;;;;;;;59.03;25.38;;;;;;;-1.23;90.65;99808.88;5055343;28;20398;-52
2022/01/09 06:31:08;;;;;;;55.13;23.65;;;;;;;-1.21;91.33;99809.78;5054505;28;20169;-53
2022/01/09 06:33:35;;;;;;;60.55;25.27;;;;;;;-1.20;91.24;99812.38;5055969;28;20044;-55
2022/01/09 06:36:03;;;;;;;58.08;24.17;;;;;;;-1.16;91.09;99823.47;5055857;28;20052;-52
2022/01/09 06:38:31;;;;;;;66.45;25.52;;;;;;;-1.19;91.10;99818.31;5056700;28;20059;-52
2022/01/09 06:40:58;;;;;;;55.67;24.65;;;;;;;-1.14;91.54;99821.81;5056178;28;20414;-55
2022/01/09 06:43:25;;;;;;;62.25;24.92;;;;;;;-1.09;91.07;99822.78;5056896;28;20059;-54
2022/01/09 06:45:52;;;;;;;60.60;24.92;;;;;;;-1.10;90.91;99826.16;5052773;28;20736;-54
2022/01/09 06:48:19;;;;;;;60.15;26.20;;;;;;;-1.08;90.96;99816.88;5058787;28;20056;-53
2022/01/09 06:50:46;;;;;;;57.17;24.30;;;;;;;-1.05;90.72;99824.56;5056217;28;20044;-50
2022/01/09 06:53:15;;;;;;;55.30;24.20;;;;;;;-1.12;90.81;99826.13;5056171;28;20080;-51
2022/01/09 06:55:43;;;;;;;57.15;25.10;;;;;;;-1.12;90.71;99826.13;5053175;28;20041;-54
2022/01/09 06:58:10;;;;;;;63.05;28.60;;;;;;;-1.10;90.84;99828.69;5053764;28;20106;-53
2022/01/09 07:00:38;;;;;;;57.85;25.25;;;;;;;-1.10;91.00;99823.59;5052559;28;20222;-53
2022/01/09 07:03:05;;;;;;;64.00;27.30;;;;;;;-1.06;90.83;99825.41;5054005;28;20057;-53
2022/01/09 07:05:32;;;;;;;61.13;25.73;;;;;;;-1.03;91.05;99830.59;5054155;28;20049;-53
2022/01/09 07:07:59;;;;;;;60.47;25.67;;;;;;;-1.02;90.72;99827.22;5052550;28;20064;-53
2022/01/09 07:10:27;;;;;;;60.72;25.73;;;;;;;-1.04;90.53;99833.94;5055127;28;20100;-54
2022/01/09 07:12:54;;;;;;;63.05;26.25;;;;;;;-1.05;90.64;99837.28;5054488;28;20467;-54
2022/01/09 07:15:22;;;;;;;60.45;23.80;;;;;;;-1.06;90.43;99843.19;5054924;28;20049;-52
2022/01/09 07:17:49;;;;;;;59.47;25.17;;;;;;;-1.07;90.89;99842.34;5056463;28;20055;-52
2022/01/09 07:20:16;;;;;;;64.97;26.45;;;;;;;-1.08;90.75;99832.13;5059521;28;20103;-51
2022/01/09 07:22:43;;;;;;;61.03;26.20;;;;;;;-1.07;90.26;99842.34;5056379;28;20056;-53
2022/01/09 07:25:11;;;;;;;60.10;25.17;;;;;;;-1.11;90.04;99849.88;5057823;28;20048;-51
2022/01/09 07:27:39;;;;;;;59.05;25.25;;;;;;;-1.13;90.29;99847.28;5056698;28;20390;-54
2022/01/09 07:30:08;;;;;;;58.03;26.58;;;;;;;-1.10;90.30;99849.03;5051822;28;20060;-54
2022/01/09 07:32:36;;;;;;;56.72;26.70;;;;;;;-1.06;90.52;99855.91;5054557;28;20119;-52
2022/01/09 07:35:04;;;;;;;59.50;28.17;;;;;;;-1.01;90.25;99865.41;5055693;28;20476;-51
2022/01/09 07:37:31;;;;;;;66.30;28.23;;;;;;;-0.99;90.63;99862.91;5055152;28;20052;-50
2022/01/09 07:39:58;;;;;;;58.78;27.15;;;;;;;-0.98;90.45;99862.09;5055534;28;20482;-54
2022/01/09 07:42:26;;;;;;;62.08;26.48;;;;;;;-1.03;89.56;99856.03;5050844;28;20593;-51
2022/01/09 07:44:55;;;;;;;55.55;25.35;;;;;;;-1.04;89.66;99867.88;5056011;28;20285;-51
2022/01/09 07:47:22;;;;;;;65.03;29.42;;;;;;;-0.99;89.59;99870.53;5061111;28;20447;-51
2022/01/09 07:49:49;;;;;;;60.53;26.65;;;;;;;-0.99;89.42;99873.94;5052534;28;20490;-51
2022/01/09 07:52:16;;;;;;;68.07;32.00;;;;;;;-1.00;89.68;99871.38;5055962;28;20059;-52
2022/01/09 07:54:43;;;;;;;71.72;33.58;;;;;;;-1.00;89.73;99871.38;5057015;28;20044;-53
2022/01/09 07:57:11;;;;;;;67.22;31.98;;;;;;;-0.96;89.92;99884.19;5058144;28;20055;-54
2022/01/09 07:59:38;;;;;;;74.53;35.55;;;;;;;-0.97;89.37;99872.28;5054120;28;20067;-52
2022/01/09 08:02:09;;;;;;;68.47;33.67;;;;;;;-0.98;89.12;99870.56;5057198;28;20052;-51
2022/01/09 08:04:36;;;;;;;79.15;34.42;;;;;;;-0.95;89.18;99877.41;5061816;28;20053;-52
2022/01/09 08:07:03;;;;;;;70.10;32.55;;;;;;;-0.95;89.07;99869.78;5053366;28;20050;-54
2022/01/09 08:09:30;;;;;;;71.22;33.63;;;;;;;-0.92;88.59;99879.19;5054171;28;20060;-53
2022/01/09 08:11:57;;;;;;;67.78;32.63;;;;;;;-0.89;88.63;99884.34;5052521;28;20048;-54
2022/01/09 08:14:25;;;;;;;70.05;32.80;;;;;;;-0.87;88.13;99883.53;5053434;28;20053;-51
2022/01/09 08:16:52;;;;;;;64.75;30.42;;;;;;;-0.89;88.13;99880.09;5056734;28;20052;-52
2022/01/09 08:19:20;;;;;;;62.13;29.20;;;;;;;-0.91;87.81;99886.84;5053791;28;20057;-53
2022/01/09 08:21:47;;;;;;;67.45;31.23;;;;;;;-0.91;87.39;99891.94;5053733;28;20486;-53
2022/01/09 08:24:15;;;;;;;67.68;33.05;;;;;;;-1.01;87.72;99890.00;5054966;28;20656;-51
2022/01/09 08:26:42;;;;;;;61.25;29.58;;;;;;;-1.01;87.75;99890.84;5054698;28;20062;-52
2022/01/09 08:29:10;;;;;;;66.93;31.73;;;;;;;-1.03;87.62;99896.72;5055823;28;20059;-52
2022/01/09 08:31:37;;;;;;;61.47;30.77;;;;;;;-1.06;87.65;99896.63;5058338;28;20060;-51
2022/01/09 08:34:04;;;;;;;66.07;31.85;;;;;;;-1.04;87.76;99898.41;5052988;28;20056;-53
2022/01/09 08:36:33;;;;;;;72.28;32.92;;;;;;;-1.04;87.64;99892.44;5052269;28;20044;-52
2022/01/09 08:39:00;;;;;;;59.88;31.02;;;;;;;-0.99;87.74;99888.34;5053552;28;20048;-53
2022/01/09 08:41:27;;;;;;;64.22;32.13;;;;;;;-0.94;87.19;99896.94;5057671;28;20098;-53
2022/01/09 08:43:54;;;;;;;71.55;32.88;;;;;;;-0.90;87.56;99893.66;5055431;28;20143;-53
2022/01/09 08:46:21;;;;;;;63.45;30.65;;;;;;;-0.85;87.29;99886.13;5057558;28;20044;-54
2022/01/09 08:48:48;;;;;;;61.22;31.08;;;;;;;-0.81;87.03;99898.97;5061486;28;20759;-54
2022/01/09 08:51:16;;;;;;;75.53;32.38;;;;;;;-0.81;86.29;99898.97;5065026;28;20053;-51
2022/01/09 08:53:50;;;;;;;57.83;29.35;;;;;;;-0.81;86.15;99893.88;5058445;28;20052;-51
2022/01/09 08:56:18;;;;;;;58.15;29.35;;;;;;;-0.80;85.95;99894.72;5056722;28;20452;-54
2022/01/09 08:58:45;;;;;;;56.45;27.85;;;;;;;-0.78;85.91;99898.16;5059642;28;20137;-54
2022/01/09 09:01:12;;;;;;;56.15;28.45;;;;;;;-0.78;85.38;99899.03;5061567;28;20505;-52
2022/01/09 09:03:41;;;;;;;52.92;27.60;;;;;;;-0.78;85.27;99898.16;5062112;28;20056;-53
2022/01/09 09:06:08;;;;;;;52.42;27.30;;;;;;;-0.76;84.99;99902.47;5055806;28;20036;-50
2022/01/09 09:08:36;;;;;;;55.60;27.98;;;;;;;-0.76;84.55;99897.38;5056306;28;20052;-54
2022/01/09 09:11:06;;;;;;;55.20;27.67;;;;;;;-0.73;84.36;99891.50;5055991;28;20226;-54
2022/01/09 09:13:33;;;;;;;51.70;27.38;;;;;;;-0.72;83.93;99889.00;5057043;28;20516;-50
2022/01/09 09:16:01;;;;;;;54.00;28.23;;;;;;;-0.70;83.75;99897.53;5061716;28;20093;-51
2022/01/09 09:18:28;;;;;;;52.65;27.73;;;;;;;-0.67;83.61;99902.69;5057321;28;20413;-54
2022/01/09 09:20:56;;;;;;;52.83;27.27;;;;;;;-0.65;83.33;99895.94;5056787;28;20059;-51
2022/01/09 09:23:24;;;;;;;52.08;25.77;;;;;;;-0.58;83.79;99891.00;5054796;28;20048;-53
2022/01/09 09:25:52;;;;;;;54.28;27.27;;;;;;;-0.55;82.94;99885.97;5058035;28;20060;-52
2022/01/09 09:28:21;;;;;;;50.03;26.10;;;;;;;-0.51;82.77;99887.78;5062064;28;20052;-54
2022/01/09 09:30:48;;;;;;;52.67;27.55;;;;;;;-0.48;82.35;99882.75;5056133;28;20048;-54
2022/01/09 09:33:15;;;;;;;51.97;27.10;;;;;;;-0.46;82.16;99886.19;5055478;28;20044;-51
2022/01/09 09:35:42;;;;;;;52.83;26.83;;;;;;;-0.44;81.74;99884.56;5060500;28;20413;-52
2022/01/09 09:38:09;;;;;;;51.50;27.40;;;;;;;-0.44;81.91;99884.56;5058925;28;20048;-54
2022/01/09 09:40:37;;;;;;;49.65;26.52;;;;;;;-0.46;81.47;99881.13;5057137;28;20098;-54
2022/01/09 09:43:04;;;;;;;48.40;26.42;;;;;;;-0.44;81.04;99879.47;5057034;28;20052;-52
2022/01/09 09:45:33;;;;;;;51.20;27.80;;;;;;;-0.43;80.82;99883.72;5058177;28;20090;-53
2022/01/09 09:48:00;;;;;;;53.15;27.67;;;;;;;-0.42;80.95;99877.81;5062567;28;20056;-55
2022/01/09 09:50:28;;;;;;;48.22;26.67;;;;;;;-0.39;80.93;99885.50;5056446;28;20048;-52
2022/01/09 09:52:55;;;;;;;54.30;28.40;;;;;;;-0.37;80.65;99886.41;5059488;28;20055;-54
2022/01/09 09:55:22;;;;;;;49.33;25.75;;;;;;;-0.37;80.32;99886.41;5056850;28;20067;-52
2022/01/09 09:57:52;;;;;;;53.22;26.20;;;;;;;-0.34;79.80;99886.47;5055644;28;20049;-51
2022/01/09 10:00:21;;;;;;;54.95;27.17;;;;;;;-0.36;79.50;99886.44;5055974;28;20048;-52
2022/01/09 10:02:51;;;;;;;55.65;28.20;;;;;;;-0.36;79.79;99877.94;5054346;28;20049;-55
2022/01/09 10:05:20;;;;;;;55.13;28.67;;;;;;;-0.36;79.91;99875.38;5055661;28;20920;-50
2022/01/09 10:07:48;;;;;;;54.83;27.45;;;;;;;-0.33;79.58;99878.00;5054587;28;20061;-54
2022/01/09 10:10:17;;;;;;;55.55;29.00;;;;;;;-0.39;79.48;99868.53;5055259;28;20088;-54
2022/01/09 10:12:46;;;;;;;55.67;28.13;;;;;;;-0.38;79.41;99871.94;5054915;28;20406;-53
2022/01/09 10:15:15;;;;;;;49.67;26.58;;;;;;;-0.35;79.39;99865.25;5058478;28;20096;-53
2022/01/09 10:17:43;;;;;;;58.10;28.58;;;;;;;-0.35;78.64;99869.47;5060833;28;20131;-51
2022/01/09 10:20:14;;;;;;;54.90;29.02;;;;;;;-0.28;78.53;99873.00;5061292;28;20097;-50
2022/01/09 10:22:44;;;;;;;59.95;28.42;;;;;;;-0.24;78.34;99875.66;5058524;28;20115;-54
2022/01/09 10:25:28;;;;;;;56.53;29.77;;;;;;;-0.16;78.23;99873.25;5056634;28;20129;-51
2022/01/09 10:28:04;;;;;;;57.53;27.65;;;;;;;-0.12;78.04;99862.31;5054161;28;20049;-51
2022/01/09 10:30:32;;;;;;;;;;;;;;;-0.12;77.98;99859.75;5064369;28;20295;-52
2022/01/09 10:33:01;;;;;;;64.53;30.25;;;;;;;-0.09;78.19;99864.91;5061495;28;20242;-51
2022/01/09 10:35:30;;;;;;;58.83;29.25;;;;;;;-0.07;78.05;99861.56;5058207;28;20098;-51
2022/01/09 10:38:11;;;;;;;64.25;31.65;;;;;;;-0.09;77.86;99858.13;5064293;28;20049;-54
2022/01/09 10:40:39;;;;;;;61.80;34.28;;;;;;;-0.11;77.78;99859.78;5064926;28;20497;-52
2022/01/09 10:43:08;;;;;;;65.78;32.95;;;;;;;-0.08;77.79;99857.28;5069471;28;20135;-50
2022/01/09 10:45:39;;;;;;;54.78;31.85;;;;;;;-0.06;77.60;99857.34;5070908;28;20519;-50
2022/01/09 10:48:10;;;;;;;64.22;33.17;;;;;;;-0.01;77.70;99851.50;5064343;28;20052;-53
2022/01/09 10:50:41;;;;;;;60.97;32.95;;;;;;;-0.04;77.14;99848.88;5060534;28;20672;-51
2022/01/09 10:53:29;;;;;;;64.05;32.85;;;;;;;-0.07;76.69;99846.28;5065190;28;20040;-53
2022/01/09 10:56:07;;;;;;;60.65;32.80;;;;;;;-0.08;76.77;99849.66;5068291;28;20052;-51
2022/01/09 10:58:36;;;;;;;68.53;35.08;;;;;;;-0.07;77.13;99846.28;5065944;28;20537;-52
2022/01/09 11:01:13;;;;;;;64.88;33.50;;;;;;;-0.03;76.96;99849.75;5071632;28;20052;-52
2022/01/09 11:03:42;;;;;;;64.70;33.13;;;;;;;0.01;76.61;99843.06;5064507;28;20040;-52
2022/01/09 11:06:11;;;;;;;66.00;36.25;;;;;;;0.01;76.51;99836.28;5065179;28;20051;-53
2022/01/09 11:08:39;;;;;;;65.07;35.05;;;;;;;0.03;76.47;99847.34;5064995;28;20048;-54
2022/01/09 11:11:10;;;;;;;73.15;36.75;;;;;;;0.06;76.24;99847.41;5067636;28;20056;-53
2022/01/09 11:13:44;;;;;;;64.80;34.95;;;;;;;0.06;75.82;99844.84;5066033;28;20098;-50
2022/01/09 11:19:00;;;;;;;62.22;34.30;;;;;;;0.05;75.76;99844.84;5072260;28;20146;-52
2022/01/09 11:21:29;;;;;;;66.43;33.80;;;;;;;0.03;75.47;99841.41;5067200;28;20048;-54
2022/01/09 11:24:09;;;;;;;68.88;34.50;;;;;;;0.01;75.30;99840.50;5065481;28;20046;-53
2022/01/09 11:26:49;;;;;;;59.13;31.98;;;;;;;-0.02;75.55;99843.81;5068167;28;20044;-53